createdAt,value
2023-05-06T00:02:10.404Z,7.93
2023-05-06T00:07:13.013Z,7.82
2023-05-06T00:12:16.938Z,9.07
2023-05-06T00:17:19.520Z,7.97
2023-05-06T00:22:22.075Z,9.02
2023-05-06T00:27:26.078Z,7.25
2023-05-06T00:32:28.875Z,7.72
2023-05-06T00:37:31.659Z,6.10
2023-05-06T00:42:35.452Z,7.63
2023-05-06T00:47:39.531Z,7.80
2023-05-06T00:52:42.189Z,5.95
2023-05-06T00:57:44.940Z,5.43
2023-05-06T01:02:49.322Z,5.72
2023-05-06T01:07:54.355Z,5.57
2023-05-06T01:13:02.293Z,5.28
2023-05-06T01:18:09.618Z,5.28
2023-05-06T01:23:14.046Z,6.13
2023-05-06T01:28:16.681Z,5.93
2023-05-06T01:33:23.325Z,6.20
2023-05-06T01:38:32.198Z,6.97
2023-05-06T01:43:38.690Z,6.15
2023-05-06T01:48:41.790Z,6.55
2023-05-06T01:53:45.773Z,8.90
2023-05-06T01:58:48.336Z,7.45
2023-05-06T02:03:51.003Z,7.32
2023-05-06T02:08:55.422Z,11.23
2023-05-06T02:14:01.945Z,9.88
2023-05-06T02:19:07.265Z,9.18
2023-05-06T02:24:11.273Z,8.55
2023-05-06T02:29:13.893Z,9.35
2023-05-06T02:34:17.210Z,8.32
2023-05-06T02:39:21.122Z,8.40
2023-05-06T02:44:23.642Z,8.80
2023-05-06T02:49:26.167Z,8.05
2023-05-06T02:54:30.086Z,9.88
2023-05-06T02:59:32.668Z,9.32
2023-05-06T03:04:35.408Z,11.52
2023-05-06T03:09:39.381Z,9.75
2023-05-06T03:14:42.353Z,12.95
2023-05-06T03:19:44.990Z,9.65
2023-05-06T03:24:50.421Z,8.93
2023-05-06T03:29:53.508Z,9.88
2023-05-06T03:34:58.271Z,9.23
2023-05-06T03:40:04.362Z,10.43
2023-05-06T03:45:08.740Z,9.50
2023-05-06T03:50:12.549Z,12.55
2023-05-06T03:55:17.459Z,13.30
2023-05-06T04:00:20.517Z,11.52
2023-05-06T04:05:27.592Z,10.32
2023-05-06T04:10:31.575Z,9.48
2023-05-06T04:15:41.470Z,9.32
2023-05-06T04:20:47.955Z,10.20
2023-05-06T04:25:52.977Z,11.30
2023-05-06T04:30:58.359Z,11.18
2023-05-06T04:36:10.643Z,11.18
2023-05-06T04:41:19.279Z,11.15
2023-05-06T04:46:23.032Z,12.73
2023-05-06T04:51:26.746Z,14.00
2023-05-06T04:56:31.082Z,13.63
2023-05-06T05:01:33.876Z,11.32
2023-05-06T05:06:37.257Z,12.77
2023-05-06T05:11:41.821Z,12.68
2023-05-06T05:16:44.481Z,11.80
2023-05-06T05:21:47.520Z,13.05
2023-05-06T05:26:52.664Z,11.07
2023-05-06T05:31:55.970Z,12.35
2023-05-06T05:36:59.152Z,12.35
2023-05-06T05:42:03.730Z,12.32
2023-05-06T05:47:08.548Z,13.35
2023-05-06T05:52:11.870Z,13.82
2023-05-06T05:57:16.470Z,13.52
2023-05-06T06:02:19.439Z,15.52
2023-05-06T06:07:22.530Z,16.90
2023-05-06T06:12:26.700Z,18.65
2023-05-06T06:17:30.062Z,16.27
2023-05-06T06:22:33.719Z,15.23
2023-05-06T06:27:37.810Z,14.35
2023-05-06T06:32:48.058Z,13.13
2023-05-06T06:37:50.773Z,14.80
2023-05-06T06:42:54.703Z,15.15
2023-05-06T06:48:16.388Z,16.40
2023-05-06T06:53:18.983Z,17.67
2023-05-06T06:58:23.130Z,15.23
2023-05-06T07:03:25.722Z,15.15
2023-05-06T07:08:28.324Z,13.80
2023-05-06T07:13:32.277Z,17.23
2023-05-06T07:18:34.969Z,15.73
2023-05-06T07:23:37.550Z,15.95
2023-05-06T07:28:41.558Z,17.15
2023-05-06T07:33:44.188Z,17.88
2023-05-06T07:38:46.800Z,17.83
2023-05-06T07:43:50.921Z,13.85
2023-05-06T07:48:53.542Z,17.38
2023-05-06T07:53:56.138Z,18.02
2023-05-06T07:59:00.402Z,15.75
2023-05-06T08:04:03.101Z,17.20
2023-05-06T08:09:05.867Z,14.07
2023-05-06T08:14:09.874Z,16.92
2023-05-06T08:19:12.535Z,15.25
2023-05-06T08:24:15.225Z,12.05
2023-05-06T08:29:19.711Z,15.13
2023-05-06T08:34:22.335Z,14.95
2023-05-06T08:39:25.009Z,14.60
2023-05-06T08:44:29.197Z,15.13
2023-05-06T08:49:31.784Z,14.75
2023-05-06T08:54:35.293Z,16.73
2023-05-06T08:59:39.383Z,14.02
2023-05-06T09:04:42.053Z,10.60
2023-05-06T09:09:44.600Z,10.57
2023-05-06T09:14:50.286Z,11.25
2023-05-06T09:19:53.331Z,13.98
2023-05-06T09:24:57.568Z,11.57
2023-05-06T09:30:03.413Z,10.25
2023-05-06T09:35:06.432Z,11.65
2023-05-06T09:40:10.201Z,11.85
2023-05-06T09:45:16.954Z,14.05
2023-05-06T09:50:21.281Z,11.75
2023-05-06T09:55:26.761Z,9.75
2023-05-06T10:00:32.444Z,8.38
2023-05-06T10:05:36.350Z,9.73
2023-05-06T10:10:41.381Z,9.25
2023-05-06T10:15:46.493Z,9.20
2023-05-06T10:20:49.722Z,10.70
2023-05-06T10:25:54.431Z,7.85
2023-05-06T10:30:59.134Z,8.88
2023-05-06T10:36:08.567Z,8.15
2023-05-06T10:41:11.414Z,8.75
2023-05-06T10:46:16.210Z,8.27
2023-05-06T10:51:22.672Z,9.25
2023-05-06T10:56:25.273Z,8.70
2023-05-06T11:01:29.400Z,8.63
2023-05-06T11:06:35.786Z,7.13
2023-05-06T11:11:47.722Z,7.13
2023-05-06T11:16:53.011Z,5.53
2023-05-06T11:21:57.576Z,8.05
2023-05-06T11:27:01.356Z,5.80
2023-05-06T11:32:06.433Z,6.90
2023-05-06T11:37:09.572Z,5.38
2023-05-06T11:42:12.171Z,5.53
2023-05-06T11:47:16.232Z,6.72
2023-05-06T11:52:20.252Z,8.75
2023-05-06T11:57:22.881Z,7.22
2023-05-06T12:02:26.937Z,9.77
2023-05-06T12:07:29.752Z,7.72
2023-05-06T12:12:33.406Z,7.28
2023-05-06T12:17:37.610Z,9.98
2023-05-06T12:22:40.422Z,8.32
2023-05-06T12:27:43.133Z,8.88
2023-05-06T12:32:59.267Z,7.07
2023-05-06T12:38:09.002Z,6.82
2023-05-06T12:43:11.971Z,7.13
2023-05-06T12:48:17.714Z,11.65
2023-05-06T12:53:31.617Z,8.07
2023-05-06T12:58:37.550Z,6.45
2023-05-06T13:03:41.861Z,5.63
2023-05-06T13:08:44.773Z,6.38
2023-05-06T13:13:47.289Z,6.22
2023-05-06T13:18:52.015Z,6.75
2023-05-06T13:23:54.657Z,6.72
2023-05-06T13:28:57.255Z,6.35
2023-05-06T13:34:01.489Z,6.53
2023-05-06T13:39:04.306Z,5.68
2023-05-06T13:44:07.265Z,6.10
2023-05-06T13:49:11.255Z,6.10
2023-05-06T13:54:13.801Z,6.10
2023-05-06T13:59:16.545Z,5.90
2023-05-06T14:04:20.782Z,6.50
2023-05-06T14:09:23.376Z,8.40
2023-05-06T14:14:27.448Z,7.97
2023-05-06T14:19:31.643Z,6.68
2023-05-06T14:24:34.590Z,6.32
2023-05-06T14:29:37.495Z,6.65
2023-05-06T14:34:41.672Z,8.45
2023-05-06T14:39:44.456Z,7.15
2023-05-06T14:44:48.769Z,8.90
2023-05-06T14:49:52.854Z,5.78
2023-05-06T14:54:55.588Z,6.78
2023-05-06T14:59:58.412Z,8.40
2023-05-06T15:05:04.316Z,8.13
2023-05-06T15:10:07.804Z,5.85
2023-05-06T15:15:10.868Z,8.23
2023-05-06T15:20:16.365Z,7.82
2023-05-06T15:25:33.447Z,6.85
2023-05-06T15:30:38.088Z,10.05
2023-05-06T15:35:41.994Z,8.57
2023-05-06T15:40:50.203Z,9.75
2023-05-06T15:45:53.484Z,8.63
2023-05-06T15:50:58.925Z,9.75
2023-05-06T15:56:13.043Z,14.88
2023-05-06T16:01:23.778Z,12.57
2023-05-06T16:06:33.897Z,13.75
2023-05-06T16:11:36.635Z,10.93
2023-05-06T16:16:39.355Z,11.80
2023-05-06T16:21:43.375Z,17.75
2023-05-06T16:26:45.966Z,14.88
2023-05-06T16:31:49.107Z,16.00
2023-05-06T16:36:53.934Z,41.65
2023-05-06T16:41:56.664Z,30.98
2023-05-06T16:46:59.362Z,17.73
2023-05-06T16:52:03.751Z,13.63
2023-05-06T16:57:06.440Z,17.13
2023-05-06T17:02:09.282Z,14.57
2023-05-06T17:07:13.291Z,12.85
2023-05-06T17:12:15.897Z,13.63
2023-05-06T17:17:20.925Z,15.10
2023-05-06T17:22:26.547Z,16.90
2023-05-06T17:27:29.325Z,14.15
2023-05-06T17:32:31.915Z,18.77
2023-05-06T17:37:35.990Z,14.73
2023-05-06T17:42:38.764Z,27.00
2023-05-06T17:47:41.436Z,18.48
2023-05-06T17:52:46.297Z,13.77
2023-05-06T17:57:48.939Z,12.75
2023-05-06T18:02:51.564Z,13.32
2023-05-06T18:07:55.529Z,13.85
2023-05-06T18:12:58.189Z,13.35
2023-05-06T18:18:01.300Z,12.05
2023-05-06T18:23:05.669Z,11.40
2023-05-06T18:28:08.478Z,11.40
2023-05-06T18:33:11.216Z,10.82
2023-05-06T18:38:15.853Z,12.18
2023-05-06T18:43:18.609Z,9.80
2023-05-06T18:48:21.246Z,14.07
2023-05-06T18:53:25.091Z,9.82
2023-05-06T18:58:28.143Z,10.10
2023-05-06T19:03:31.502Z,8.90
2023-05-06T19:08:36.145Z,10.40
2023-05-06T19:13:41.527Z,8.80
2023-05-06T19:18:44.296Z,7.90
2023-05-06T19:23:48.347Z,8.25
2023-05-06T19:28:51.253Z,8.70
2023-05-06T19:33:53.857Z,7.80
2023-05-06T19:38:57.863Z,8.30
2023-05-06T19:44:00.665Z,7.38
2023-05-06T19:49:03.316Z,8.57
2023-05-06T19:54:07.297Z,8.68
2023-05-06T19:59:09.942Z,8.45
2023-05-06T20:04:12.497Z,10.57
2023-05-06T20:09:16.384Z,11.18
2023-05-06T20:14:18.998Z,9.55
2023-05-06T20:19:23.703Z,8.90
2023-05-06T20:24:29.387Z,9.00
2023-05-06T20:29:32.681Z,7.63
2023-05-06T20:34:35.356Z,8.30
2023-05-06T20:39:39.356Z,8.77
2023-05-06T20:44:41.969Z,7.80
2023-05-06T20:49:44.588Z,7.05
2023-05-06T20:54:48.867Z,6.10
2023-05-06T20:59:52.356Z,7.07
2023-05-06T21:04:54.934Z,6.47
2023-05-06T21:09:58.880Z,9.30
2023-05-06T21:15:01.587Z,7.22
2023-05-06T21:20:06.225Z,5.95
2023-05-06T21:25:13.130Z,5.93
2023-05-06T21:30:16.163Z,5.32
2023-05-06T21:35:18.788Z,6.22
2023-05-06T21:40:22.779Z,5.43
2023-05-06T21:45:25.380Z,5.00
2023-05-06T21:50:28.384Z,5.63
2023-05-06T21:55:32.401Z,4.18
2023-05-06T22:00:35.067Z,5.97
2023-05-06T22:05:38.657Z,4.18
2023-05-06T22:10:42.557Z,5.35
2023-05-06T22:15:45.139Z,4.18
2023-05-06T22:20:49.226Z,6.13
2023-05-06T22:25:53.251Z,4.40
2023-05-06T22:30:55.939Z,4.47
2023-05-06T22:35:58.515Z,4.75
2023-05-06T22:41:02.423Z,4.15
2023-05-06T22:46:05.240Z,4.50
2023-05-06T22:51:07.929Z,4.03
2023-05-06T22:56:12.032Z,5.50
2023-05-06T23:01:14.665Z,5.97
2023-05-06T23:06:18.047Z,8.82
2023-05-06T23:11:21.918Z,9.77
2023-05-06T23:16:24.481Z,8.57
2023-05-06T23:21:27.577Z,7.75
2023-05-06T23:26:31.456Z,8.07
2023-05-06T23:31:34.251Z,8.20
2023-05-06T23:36:36.903Z,9.35
2023-05-06T23:41:40.793Z,7.50
2023-05-06T23:46:43.464Z,7.13
2023-05-06T23:51:46.060Z,7.65
2023-05-06T23:56:50.555Z,6.80
